Time;durP1;ratioP1;P1;durP2;ratioP2;P2;SDS_P1;SDS_P2;PMS_P1;PMS_P2;Temp;Humidity;BMP_temperature;BMP_pressure;BME280_temperature;BME280_humidity;BME280_pressure;Samples;Min_cycle;Max_cycle;Signal;HPM_P1;HPM_P2
2022/05/01 00:01:39;;;;;;;;;;;14.90;57.10;;;;;;5028122;28;86767;-56
2022/05/01 00:04:05;;;;;;;;;;;14.90;57.20;;;;;;5028036;28;88144;-55
2022/05/01 00:06:33;;;;;;;;;;;14.90;57.20;;;;;;5026869;28;89412;-56
2022/05/01 00:09:03;;;;;;;;;;;14.90;57.20;;;;;;5030916;28;86889;-56
2022/05/01 00:11:30;;;;;;;;;;;14.80;57.20;;;;;;5027747;28;86981;-55
2022/05/01 00:13:57;;;;;;;;;;;14.80;57.20;;;;;;5027723;28;86897;-57
2022/05/01 00:16:23;;;;;;;;;;;14.80;57.20;;;;;;5027891;28;88190;-57
2022/05/01 00:18:49;;;;;;;;;;;14.80;57.30;;;;;;5027666;28;87340;-55
2022/05/01 00:21:14;;;;;;;;;;;14.80;57.30;;;;;;5027933;28;86957;-56
2022/05/01 00:23:40;;;;;;;;;;;14.80;57.20;;;;;;5028191;28;87293;-55
2022/05/01 00:26:06;;;;;;;;;;;14.80;57.30;;;;;;5027320;28;87666;-57
2022/05/01 00:28:33;;;;;;;;;;;14.80;57.30;;;;;;5030748;28;86868;-56
2022/05/01 00:30:59;;;;;;;;;;;14.70;57.30;;;;;;5026527;28;88604;-56
2022/05/01 00:36:27;;;;;;;;;;;14.70;57.30;;;;;;5027727;28;87189;-57
2022/05/01 00:39:03;;;;;;;;;;;14.70;57.30;;;;;;5026969;28;88702;-56
2022/05/01 00:41:30;;;;;;;;;;;14.70;57.30;;;;;;5027328;28;87326;-56
2022/05/01 00:44:00;;;;;;;;;;;14.70;57.30;;;;;;5027480;28;87081;-54
2022/05/01 00:46:30;;;;;;;;;;;14.60;57.30;;;;;;5026989;28;88623;-56
2022/05/01 00:48:56;;;;;;;;;;;14.70;57.40;;;;;;5027846;28;86044;-57
2022/05/01 00:51:22;;;;;;;;;;;14.60;57.30;;;;;;5029801;28;87221;-57
2022/05/01 00:53:51;;;;;;;;;;;14.70;57.40;;;;;;5027167;28;86926;-56
2022/05/01 00:56:16;;;;;;;;;;;14.60;57.40;;;;;;5026548;28;87986;-56
2022/05/01 00:58:42;;;;;;;;;;;14.60;57.40;;;;;;5026744;28;88613;-56
2022/05/01 01:01:10;;;;;;;;;;;14.60;57.40;;;;;;5025743;28;86886;-54
2022/05/01 01:03:35;;;;;;;;;;;14.60;57.40;;;;;;5027033;28;87084;-58
2022/05/01 01:06:01;;;;;;;;;;;14.60;57.40;;;;;;5026744;28;88363;-54
2022/05/01 01:08:28;;;;;;;;;;;14.50;57.50;;;;;;5027088;28;86902;-54
2022/05/01 01:10:53;;;;;;;;;;;14.50;57.40;;;;;;5027235;28;87049;-56
2022/05/01 01:13:29;;;;;;;;;;;14.50;57.30;;;;;;5029868;28;86972;-53
2022/05/01 01:15:58;;;;;;;;;;;14.50;57.40;;;;;;5026868;28;87554;-56
2022/05/01 01:18:24;;;;;;;;;;;14.50;57.40;;;;;;5026378;28;87660;-54
2022/05/01 01:20:54;;;;;;;;;;;14.50;57.40;;;;;;5026097;28;87846;-57
2022/05/01 01:23:20;;;;;;;;;;;14.50;57.50;;;;;;5027080;28;86874;-57
2022/05/01 01:25:47;;;;;;;;;;;14.40;57.50;;;;;;5026583;28;87584;-56
2022/05/01 01:28:14;;;;;;;;;;;14.40;57.40;;;;;;5026658;28;86893;-57
2022/05/01 01:33:26;;;;;;;;;;;14.40;57.50;;;;;;5026342;28;86918;-56
2022/05/01 01:35:53;;;;;;;;;;;14.40;57.40;;;;;;5029721;28;86967;-54
2022/05/01 01:38:19;;;;;;;;;;;14.40;57.40;;;;;;5027005;28;86092;-56
2022/05/01 01:40:53;;;;;;;;;;;14.30;57.50;;;;;;5026562;28;87052;-57
2022/05/01 01:43:23;;;;;;;;;;;14.30;57.40;;;;;;5026433;28;88104;-55
2022/05/01 01:45:49;;;;;;;;;;;14.30;57.50;;;;;;5025585;28;87877;-56
2022/05/01 01:48:15;;;;;;;;;;;14.30;57.50;;;;;;5026266;28;87009;-55
2022/05/01 01:50:42;;;;;;;;;;;14.30;57.50;;;;;;5026371;28;88024;-56
2022/05/01 01:53:08;;;;;;;;;;;14.30;57.50;;;;;;5026198;28;87539;-53
2022/05/01 01:55:38;;;;;;;;;;;14.30;57.50;;;;;;5026182;28;87150;-55
2022/05/01 01:58:05;;;;;;;;;;;14.20;57.60;;;;;;5028851;28;88220;-54
2022/05/01 02:00:30;;;;;;;;;;;14.20;57.50;;;;;;5026084;28;86972;-56
2022/05/01 02:02:59;;;;;;;;;;;14.20;57.50;;;;;;5026638;28;87868;-57
2022/05/01 02:05:25;;;;;;;;;;;14.20;57.60;;;;;;5025669;28;88603;-55
2022/05/01 02:07:51;;;;;;;;;;;14.20;57.60;;;;;;5026121;28;86878;-57
2022/05/01 02:10:17;;;;;;;;;;;14.10;57.70;;;;;;5025472;28;88322;-56
2022/05/01 02:12:43;;;;;;;;;;;14.10;57.70;;;;;;5008477;28;90336;-57
2022/05/01 02:15:09;;;;;;;;;;;14.10;57.60;;;;;;5029533;28;87005;-57
2022/05/01 02:17:35;;;;;;;;;;;14.10;57.50;;;;;;5029622;28;88078;-56
2022/05/01 02:20:01;;;;;;;;;;;14.10;57.60;;;;;;5032342;28;87415;-56
2022/05/01 02:22:27;;;;;;;;;;;14.10;57.60;;;;;;5028916;28;86883;-57
2022/05/01 02:24:53;;;;;;;;;;;14.10;57.50;;;;;;5029166;28;88491;-56
2022/05/01 02:27:20;;;;;;;;;;;14.00;57.50;;;;;;5029947;28;86175;-57
2022/05/01 02:29:46;;;;;;;;;;;14.00;57.60;;;;;;5029772;28;87078;-53
2022/05/01 02:32:12;;;;;;;;;;;14.00;57.70;;;;;;5028231;28;87559;-56
2022/05/01 02:34:37;;;;;;;;;;;14.00;57.70;;;;;;5028672;28;87903;-54
2022/05/01 02:37:03;;;;;;;;;;;14.00;57.60;;;;;;5029651;28;87268;-57
2022/05/01 02:39:29;;;;;;;;;;;14.00;57.60;;;;;;5032081;28;87501;-57
2022/05/01 02:41:56;;;;;;;;;;;13.90;57.70;;;;;;5029218;28;88223;-53
2022/05/01 02:44:22;;;;;;;;;;;13.90;57.70;;;;;;5028778;28;88591;-56
2022/05/01 02:46:47;;;;;;;;;;;13.90;57.70;;;;;;5029621;28;86935;-53
2022/05/01 02:49:14;;;;;;;;;;;13.90;57.70;;;;;;5029007;28;88311;-56
2022/05/01 02:51:40;;;;;;;;;;;13.90;57.70;;;;;;5029164;28;87813;-56
2022/05/01 02:54:05;;;;;;;;;;;13.90;57.70;;;;;;5029207;28;86874;-56
2022/05/01 02:56:31;;;;;;;;;;;13.80;57.70;;;;;;5028966;28;88444;-53
2022/05/01 02:58:57;;;;;;;;;;;13.80;57.60;;;;;;5028021;28;89463;-56
2022/05/01 03:01:23;;;;;;;;;;;13.80;57.70;;;;;;5031785;28;86897;-56
2022/05/01 03:03:50;;;;;;;;;;;13.80;57.70;;;;;;5028597;28;87845;-54
2022/05/01 03:06:16;;;;;;;;;;;13.70;57.80;;;;;;5028854;28;86884;-54
2022/05/01 03:08:42;;;;;;;;;;;13.70;57.80;;;;;;5029236;28;86822;-57
2022/05/01 03:11:08;;;;;;;;;;;13.80;57.70;;;;;;5028470;28;87799;-55
2022/05/01 03:13:33;;;;;;;;;;;13.80;57.60;;;;;;5027980;28;87146;-57
2022/05/01 03:16:00;;;;;;;;;;;13.70;57.60;;;;;;5028570;28;86390;-56
2022/05/01 03:23:54;;;;;;;;;;;13.70;57.60;;;;;;5030712;28;87862;-57
2022/05/01 03:26:19;;;;;;;;;;;13.70;57.70;;;;;;5028536;28;86817;-56
2022/05/01 03:28:46;;;;;;;;;;;13.70;57.70;;;;;;5028497;28;87992;-57
2022/05/01 03:31:12;;;;;;;;;;;13.60;57.60;;;;;;5028052;28;88586;-57
2022/05/01 03:33:39;;;;;;;;;;;13.60;57.80;;;;;;5028381;28;86892;-53
2022/05/01 03:36:08;;;;;;;;;;;13.60;57.90;;;;;;5028462;28;87706;-57
2022/05/01 03:38:35;;;;;;;;;;;13.60;57.80;;;;;;5028006;28;87761;-53
2022/05/01 03:41:01;;;;;;;;;;;13.60;57.80;;;;;;5028829;28;86141;-55
2022/05/01 03:43:26;;;;;;;;;;;13.60;57.80;;;;;;5028382;28;87188;-53
2022/05/01 03:45:52;;;;;;;;;;;13.50;57.70;;;;;;5030799;28;88609;-55
2022/05/01 03:48:17;;;;;;;;;;;13.50;57.80;;;;;;5027446;28;87824;-54
2022/05/01 03:50:43;;;;;;;;;;;13.50;57.80;;;;;;5028064;28;87542;-55
2022/05/01 03:53:09;;;;;;;;;;;13.50;57.70;;;;;;5028464;28;86874;-55
2022/05/01 03:55:36;;;;;;;;;;;13.50;58.40;;;;;;5028012;28;87040;-56
2022/05/01 03:58:02;;;;;;;;;;;13.50;57.90;;;;;;5027729;28;87704;-56
2022/05/01 04:00:27;;;;;;;;;;;13.50;57.70;;;;;;5027918;28;87005;-55
2022/05/01 04:02:53;;;;;;;;;;;13.40;57.70;;;;;;5028137;28;88328;-52
2022/05/01 04:05:19;;;;;;;;;;;13.50;57.70;;;;;;5028334;28;86688;-55
2022/05/01 04:07:44;;;;;;;;;;;13.40;57.70;;;;;;5031187;28;86950;-57
2022/05/01 04:10:12;;;;;;;;;;;13.40;57.70;;;;;;5027470;28;88467;-56
2022/05/01 04:12:38;;;;;;;;;;;13.40;57.60;;;;;;5027164;28;87900;-53
2022/05/01 04:15:07;;;;;;;;;;;13.40;57.70;;;;;;5028097;28;87758;-53
2022/05/01 04:17:39;;;;;;;;;;;13.40;57.60;;;;;;5027335;28;88570;-55
2022/05/01 04:20:08;;;;;;;;;;;13.40;57.60;;;;;;5027836;28;86885;-55
2022/05/01 04:22:41;;;;;;;;;;;13.40;57.60;;;;;;5027774;28;88253;-54
2022/05/01 04:25:09;;;;;;;;;;;13.40;57.70;;;;;;5027332;28;88624;-52
2022/05/01 04:27:35;;;;;;;;;;;13.30;57.80;;;;;;5027286;28;87187;-53
2022/05/01 04:30:01;;;;;;;;;;;13.30;57.70;;;;;;5030292;28;87029;-52
2022/05/01 04:32:26;;;;;;;;;;;13.40;57.80;;;;;;5027093;28;87020;-56
2022/05/01 04:34:53;;;;;;;;;;;13.30;57.80;;;;;;5026899;28;87012;-53
2022/05/01 04:37:18;;;;;;;;;;;13.30;57.80;;;;;;5025337;28;88658;-57
2022/05/01 04:39:44;;;;;;;;;;;13.30;57.70;;;;;;5027022;28;86933;-56
2022/05/01 04:42:09;;;;;;;;;;;13.30;57.70;;;;;;5026875;28;87870;-57
2022/05/01 04:44:35;;;;;;;;;;;13.30;57.70;;;;;;5026766;28;87507;-56
2022/05/01 04:47:01;;;;;;;;;;;13.30;57.60;;;;;;5026915;28;86878;-53
2022/05/01 04:49:26;;;;;;;;;;;13.30;57.70;;;;;;5029211;28;87133;-55
2022/05/01 04:51:52;;;;;;;;;;;13.30;57.60;;;;;;5026866;28;86823;-54
2022/05/01 04:54:17;;;;;;;;;;;13.30;57.70;;;;;;5027134;28;87247;-54
2022/05/01 04:59:27;;;;;;;;;;;13.30;57.70;;;;;;5023805;28;87211;-57
2022/05/01 05:01:52;;;;;;;;;;;13.30;57.70;;;;;;5026000;28;87795;-56
2022/05/01 05:04:18;;;;;;;;;;;13.20;57.70;;;;;;5026614;28;87503;-55
2022/05/01 05:06:43;;;;;;;;;;;13.30;57.70;;;;;;5026933;28;86914;-55
2022/05/01 05:11:53;;;;;;;;;;;13.30;57.70;;;;;;5026101;28;86916;-55
2022/05/01 05:14:18;;;;;;;;;;;13.30;57.70;;;;;;5026280;28;86872;-57
2022/05/01 05:16:44;;;;;;;;;;;13.30;57.70;;;;;;5026200;28;88410;-55
2022/05/01 05:19:10;;;;;;;;;;;13.30;57.70;;;;;;5026193;28;86081;-55
2022/05/01 05:21:35;;;;;;;;;;;13.30;57.70;;;;;;5026497;28;87320;-57
2022/05/01 05:24:01;;;;;;;;;;;13.30;57.80;;;;;;5026115;28;86941;-56
2022/05/01 05:26:26;;;;;;;;;;;13.20;57.80;;;;;;5025493;28;87907;-57
2022/05/01 05:28:52;;;;;;;;;;;13.20;57.80;;;;;;5026161;28;88895;-57
2022/05/01 05:31:18;;;;;;;;;;;13.20;58.00;;;;;;5025726;28;88654;-55
2022/05/01 05:33:43;;;;;;;;;;;13.20;58.00;;;;;;5029058;28;88098;-55
2022/05/01 05:36:09;;;;;;;;;;;13.20;58.00;;;;;;5025835;28;88326;-53
2022/05/01 05:38:37;;;;;;;;;;;13.20;58.00;;;;;;5026347;28;86873;-57
2022/05/01 05:41:03;;;;;;;;;;;13.30;58.00;;;;;;5026130;28;87017;-54
2022/05/01 05:43:29;;;;;;;;;;;13.30;58.00;;;;;;5026124;28;87973;-56
2022/05/01 05:45:54;;;;;;;;;;;13.20;57.90;;;;;;5026568;28;87050;-57
2022/05/01 05:48:20;;;;;;;;;;;13.20;58.00;;;;;;5024691;28;88061;-57
2022/05/01 05:50:45;;;;;;;;;;;13.20;58.00;;;;;;5024852;28;89545;-55
2022/05/01 05:53:11;;;;;;;;;;;13.30;58.00;;;;;;5026181;28;86879;-57
2022/05/01 05:55:36;;;;;;;;;;;13.30;58.00;;;;;;5028312;28;88077;-56
2022/05/01 05:58:02;;;;;;;;;;;13.30;58.00;;;;;;5025692;28;86865;-56
2022/05/01 06:00:28;;;;;;;;;;;13.30;58.20;;;;;;5025717;28;86889;-56
2022/05/01 06:02:53;;;;;;;;;;;13.30;58.10;;;;;;5025562;28;87799;-55
2022/05/01 06:05:19;;;;;;;;;;;13.20;58.30;;;;;;5025903;28;86902;-57
2022/05/01 06:07:45;;;;;;;;;;;13.20;58.40;;;;;;5026087;28;88001;-57
2022/05/01 06:10:10;;;;;;;;;;;13.20;58.40;;;;;;5025567;28;88444;-56
2022/05/01 06:12:42;;;;;;;;;;;13.20;58.40;;;;;;5024856;28;87258;-55
2022/05/01 06:15:08;;;;;;;;;;;13.30;58.40;;;;;;5025061;28;87843;-56
2022/05/01 06:17:34;;;;;;;;;;;13.30;58.30;;;;;;5026759;28;88752;-55
2022/05/01 06:19:59;;;;;;;;;;;13.20;58.50;;;;;;5025819;28;87333;-57
2022/05/01 06:22:25;;;;;;;;;;;13.20;58.60;;;;;;5025114;28;88863;-54
2022/05/01 06:24:50;;;;;;;;;;;13.20;58.50;;;;;;5025605;28;86894;-55
2022/05/01 06:27:17;;;;;;;;;;;13.20;58.40;;;;;;5025363;28;87292;-56
2022/05/01 06:29:44;;;;;;;;;;;13.30;58.60;;;;;;5025251;28;87787;-55
2022/05/01 06:32:10;;;;;;;;;;;13.20;58.60;;;;;;5025940;28;86342;-57
2022/05/01 06:34:36;;;;;;;;;;;13.20;58.50;;;;;;5025268;28;87381;-53
2022/05/01 06:37:02;;;;;;;;;;;13.30;58.60;;;;;;5024690;28;88598;-55
2022/05/01 06:39:28;;;;;;;;;;;13.30;58.50;;;;;;5027163;28;87821;-57
2022/05/01 06:41:54;;;;;;;;;;;13.30;58.60;;;;;;5025247;28;87218;-57
2022/05/01 06:44:19;;;;;;;;;;;13.20;58.50;;;;;;5025182;28;86961;-55
2022/05/01 06:46:45;;;;;;;;;;;13.20;58.60;;;;;;5025392;28;87669;-53
2022/05/01 06:49:11;;;;;;;;;;;13.20;58.80;;;;;;5024503;28;87539;-53
2022/05/01 06:51:36;;;;;;;;;;;13.20;58.80;;;;;;5025173;28;87263;-56
2022/05/01 06:54:04;;;;;;;;;;;13.20;58.80;;;;;;5024457;28;86914;-58
2022/05/01 06:56:30;;;;;;;;;;;13.20;58.70;;;;;;5025094;28;86841;-55
2022/05/01 06:58:55;;;;;;;;;;;13.30;58.80;;;;;;5028887;28;86882;-56
2022/05/01 07:01:21;;;;;;;;;;;13.20;58.70;;;;;;5028480;28;87445;-57
2022/05/01 07:03:47;;;;;;;;;;;13.20;58.70;;;;;;5027923;28;87897;-57
2022/05/01 07:06:13;;;;;;;;;;;13.20;58.80;;;;;;5028312;28;89354;-56
2022/05/01 07:08:38;;;;;;;;;;;13.30;58.70;;;;;;5028031;28;88487;-55
2022/05/01 07:11:04;;;;;;;;;;;13.30;58.70;;;;;;5028387;28;86873;-56
2022/05/01 07:13:30;;;;;;;;;;;13.30;58.80;;;;;;5028756;28;87578;-56
2022/05/01 07:15:55;;;;;;;;;;;13.30;58.70;;;;;;5028194;28;86887;-55
2022/05/01 07:18:21;;;;;;;;;;;13.30;58.70;;;;;;5028132;28;86860;-55
2022/05/01 07:20:47;;;;;;;;;;;13.30;58.70;;;;;;5031293;28;87154;-56
2022/05/01 07:23:13;;;;;;;;;;;13.30;58.70;;;;;;5028717;28;86875;-54
2022/05/01 07:25:39;;;;;;;;;;;13.30;59.00;;;;;;5028792;28;88392;-52
2022/05/01 07:28:04;;;;;;;;;;;13.30;59.00;;;;;;5027649;28;88575;-52
2022/05/01 07:30:30;;;;;;;;;;;13.30;59.10;;;;;;5028502;28;87040;-53
2022/05/01 07:32:55;;;;;;;;;;;13.30;59.00;;;;;;5028536;28;87953;-54
2022/05/01 07:35:21;;;;;;;;;;;13.30;58.80;;;;;;5027901;28;88647;-53
2022/05/01 07:37:47;;;;;;;;;;;13.30;58.90;;;;;;5028707;28;86870;-53
2022/05/01 07:40:13;;;;;;;;;;;13.30;58.80;;;;;;5028210;28;87986;-53
2022/05/01 07:42:38;;;;;;;;;;;13.30;59.00;;;;;;5030780;28;88664;-55
2022/05/01 07:45:04;;;;;;;;;;;13.30;59.10;;;;;;5028754;28;87925;-54
2022/05/01 07:47:30;;;;;;;;;;;13.30;58.90;;;;;;5027655;28;88779;-53
2022/05/01 07:49:57;;;;;;;;;;;13.40;58.90;;;;;;5028516;28;86845;-52
2022/05/01 07:52:23;;;;;;;;;;;13.30;59.00;;;;;;5027643;28;87861;-54
2022/05/01 07:54:49;;;;;;;;;;;13.30;59.00;;;;;;5027815;28;88534;-53
2022/05/01 07:57:15;;;;;;;;;;;13.40;59.10;;;;;;5028127;28;86862;-54
2022/05/01 07:59:40;;;;;;;;;;;13.40;58.90;;;;;;5028290;28;86873;-52
2022/05/01 08:02:06;;;;;;;;;;;13.40;58.90;;;;;;5027664;28;88522;-53
2022/05/01 08:04:34;;;;;;;;;;;13.40;58.90;;;;;;5030277;28;87101;-55
2022/05/01 08:07:00;;;;;;;;;;;13.40;58.90;;;;;;5026760;28;87596;-55
2022/05/01 08:09:27;;;;;;;;;;;13.50;58.80;;;;;;5028415;28;86497;-53
2022/05/01 08:11:53;;;;;;;;;;;13.50;58.70;;;;;;5026866;28;86914;-52
2022/05/01 08:14:19;;;;;;;;;;;13.50;58.70;;;;;;5027374;28;88552;-52
2022/05/01 08:16:46;;;;;;;;;;;13.50;58.70;;;;;;5027147;28;87861;-52
2022/05/01 08:21:55;;;;;;;;;;;13.50;59.00;;;;;;5027328;28;87199;-53
2022/05/01 08:24:21;;;;;;;;;;;13.50;58.80;;;;;;5027107;28;86996;-55
2022/05/01 08:26:48;;;;;;;;;;;13.50;59.10;;;;;;5029719;28;87884;-53
2022/05/01 08:29:14;;;;;;;;;;;13.50;59.20;;;;;;5027197;28;87393;-54
2022/05/01 08:31:40;;;;;;;;;;;13.50;59.10;;;;;;5026923;28;88389;-56
2022/05/01 08:34:07;;;;;;;;;;;13.60;59.20;;;;;;5027216;28;87818;-54
2022/05/01 08:36:33;;;;;;;;;;;13.50;59.40;;;;;;5026976;28;86886;-53
2022/05/01 08:38:59;;;;;;;;;;;13.50;59.50;;;;;;5027120;28;87377;-54
2022/05/01 08:41:25;;;;;;;;;;;13.50;59.50;;;;;;5026046;28;88985;-57
2022/05/01 08:43:53;;;;;;;;;;;13.60;59.30;;;;;;5026876;28;86888;-55
2022/05/01 08:46:28;;;;;;;;;;;13.60;59.40;;;;;;5029488;28;87905;-56
2022/05/01 08:49:04;;;;;;;;;;;13.60;59.50;;;;;;5026632;28;87138;-53
2022/05/01 08:51:37;;;;;;;;;;;13.60;59.30;;;;;;5026714;28;87968;-55
2022/05/01 08:54:04;;;;;;;;;;;13.60;59.40;;;;;;5026277;28;87653;-56
2022/05/01 08:56:30;;;;;;;;;;;13.60;59.20;;;;;;5025966;28;87509;-54
2022/05/01 08:58:56;;;;;;;;;;;13.60;59.30;;;;;;5026985;28;86126;-53
2022/05/01 09:01:22;;;;;;;;;;;13.60;59.20;;;;;;5026489;28;87558;-53
2022/05/01 09:03:48;;;;;;;;;;;13.60;59.30;;;;;;5026612;28;86883;-53
2022/05/01 09:06:13;;;;;;;;;;;13.70;59.20;;;;;;5026210;28;87775;-54
2022/05/01 09:08:40;;;;;;;;;;;13.60;59.20;;;;;;5028988;28;87499;-53
2022/05/01 09:13:49;;;;;;;;;;;13.70;59.20;;;;;;5023045;28;87003;-54
2022/05/01 09:16:15;;;;;;;;;;;13.60;59.30;;;;;;5026175;28;86955;-56
2022/05/01 09:18:45;;;;;;;;;;;13.70;59.30;;;;;;5026345;28;87976;-53
2022/05/01 09:21:11;;;;;;;;;;;13.70;59.30;;;;;;5026047;28;87325;-57
2022/05/01 09:23:48;;;;;;;;;;;13.70;59.30;;;;;;5026503;28;86171;-56
2022/05/01 09:26:14;;;;;;;;;;;13.70;59.30;;;;;;5026170;28;87222;-57
2022/05/01 09:28:50;;;;;;;;;;;13.80;59.40;;;;;;5026016;28;87504;-53
2022/05/01 09:31:16;;;;;;;;;;;13.80;59.40;;;;;;5028473;28;87870;-56
2022/05/01 09:33:42;;;;;;;;;;;13.80;59.40;;;;;;5025681;28;88995;-56
2022/05/01 09:36:09;;;;;;;;;;;13.80;59.10;;;;;;5025380;28;86909;-55
2022/05/01 09:38:35;;;;;;;;;;;13.80;59.20;;;;;;5026097;28;87078;-56
2022/05/01 09:41:12;;;;;;;;;;;13.70;59.10;;;;;;5025590;28;88191;-56
2022/05/01 09:43:38;;;;;;;;;;;13.80;59.30;;;;;;5026076;28;86922;-56
2022/05/01 09:46:20;;;;;;;;;;;13.80;59.30;;;;;;5025961;28;86925;-56
2022/05/01 09:48:58;;;;;;;;;;;13.90;59.30;;;;;;5025630;28;87531;-56
2022/05/01 09:51:24;;;;;;;;;;;13.80;59.20;;;;;;5025957;28;86918;-54
2022/05/01 09:53:49;;;;;;;;;;;13.80;59.30;;;;;;5028554;28;86887;-56
2022/05/01 09:56:15;;;;;;;;;;;13.80;59.50;;;;;;5025437;28;87833;-55
2022/05/01 09:58:42;;;;;;;;;;;13.90;59.50;;;;;;5025707;28;88849;-55
2022/05/01 10:01:09;;;;;;;;;;;13.90;59.50;;;;;;5025427;28;87835;-53
2022/05/01 10:03:39;;;;;;;;;;;13.90;59.30;;;;;;5025940;28;86933;-53
2022/05/01 10:06:06;;;;;;;;;;;13.90;59.40;;;;;;5025886;28;86938;-57
2022/05/01 10:08:32;;;;;;;;;;;13.90;59.30;;;;;;5025261;28;87683;-55
2022/05/01 10:10:58;;;;;;;;;;;14.00;59.50;;;;;;5025883;28;86984;-56
2022/05/01 10:13:25;;;;;;;;;;;14.00;59.60;;;;;;5026122;28;87811;-53
2022/05/01 10:15:52;;;;;;;;;;;14.00;59.50;;;;;;5028071;28;88455;-53
2022/05/01 10:18:18;;;;;;;;;;;13.90;59.70;;;;;;5025522;28;87225;-55
2022/05/01 10:20:43;;;;;;;;;;;13.90;59.80;;;;;;5024389;28;89190;-55
2022/05/01 10:23:12;;;;;;;;;;;14.00;59.70;;;;;;5025539;28;87137;-57
2022/05/01 10:25:46;;;;;;;;;;;14.00;59.70;;;;;;5025528;28;87933;-55
2022/05/01 10:28:18;;;;;;;;;;;14.00;59.60;;;;;;5024987;28;88759;-54
2022/05/01 10:33:43;;;;;;;;;;;14.00;59.30;;;;;;5026304;28;86879;-53
2022/05/01 10:36:25;;;;;;;;;;;13.90;59.80;;;;;;5028551;28;88567;-56
2022/05/01 10:39:03;;;;;;;;;;;13.90;59.50;;;;;;5032588;28;86126;-57
2022/05/01 10:41:30;;;;;;;;;;;14.00;59.30;;;;;;5028305;28;88663;-53
2022/05/01 10:43:57;;;;;;;;;;;13.90;59.40;;;;;;5029235;28;86989;-57
2022/05/01 10:46:27;;;;;;;;;;;14.00;59.50;;;;;;5028319;28;87766;-57
2022/05/01 10:48:55;;;;;;;;;;;14.00;59.20;;;;;;5027694;28;88423;-52
2022/05/01 10:51:38;;;;;;;;;;;14.00;59.30;;;;;;5028549;28;86946;-53
2022/05/01 10:54:10;;;;;;;;;;;14.00;59.30;;;;;;5028795;28;86875;-57
2022/05/01 10:56:36;;;;;;;;;;;14.10;59.20;;;;;;5028089;28;88731;-57
2022/05/01 10:59:20;;;;;;;;;;;14.10;59.10;;;;;;5031615;28;86867;-56
2022/05/01 11:01:52;;;;;;;;;;;14.10;59.30;;;;;;5028424;28;87390;-56
2022/05/01 11:04:21;;;;;;;;;;;14.10;59.40;;;;;;5028866;28;86124;-54
2022/05/01 11:06:54;;;;;;;;;;;14.00;59.40;;;;;;5028456;28;86883;-54
2022/05/01 11:09:20;;;;;;;;;;;14.00;59.40;;;;;;5027884;28;87639;-54
2022/05/01 11:11:45;;;;;;;;;;;14.00;59.40;;;;;;5027123;28;88010;-57
2022/05/01 11:14:14;;;;;;;;;;;14.10;59.40;;;;;;5028088;28;88943;-56
2022/05/01 11:16:50;;;;;;;;;;;14.10;59.40;;;;;;5027898;28;88683;-56
2022/05/01 11:19:16;;;;;;;;;;;14.10;59.40;;;;;;5028040;28;86870;-57
2022/05/01 11:21:46;;;;;;;;;;;14.10;59.50;;;;;;5030734;28;86961;-56
2022/05/01 11:24:15;;;;;;;;;;;14.10;59.40;;;;;;5028327;28;87092;-54
2022/05/01 11:27:00;;;;;;;;;;;14.20;59.40;;;;;;5028086;28;87864;-57
2022/05/01 11:29:26;;;;;;;;;;;14.10;59.50;;;;;;5028597;28;86801;-56
2022/05/01 11:31:52;;;;;;;;;;;14.10;59.40;;;;;;5028090;28;86868;-57
2022/05/01 11:34:21;;;;;;;;;;;14.20;59.50;;;;;;5027847;28;87173;-53
2022/05/01 11:36:50;;;;;;;;;;;14.20;59.40;;;;;;5027036;28;89377;-55
2022/05/01 11:39:16;;;;;;;;;;;14.20;59.50;;;;;;5028432;28;87198;-53
2022/05/01 11:41:47;;;;;;;;;;;14.20;59.70;;;;;;5028053;28;86872;-54
2022/05/01 11:44:23;;;;;;;;;;;14.20;59.40;;;;;;5030553;28;88616;-57
2022/05/01 11:46:49;;;;;;;;;;;14.30;59.30;;;;;;5026749;28;87124;-54
2022/05/01 11:49:14;;;;;;;;;;;14.30;59.10;;;;;;5027134;28;88606;-55
2022/05/01 11:51:40;;;;;;;;;;;14.30;59.00;;;;;;5027746;28;86858;-53
2022/05/01 11:54:07;;;;;;;;;;;14.30;59.00;;;;;;5028046;28;87888;-57
2022/05/01 12:04:46;;;;;;;;;;;14.40;59.00;;;;;;5027469;28;86869;-57
2022/05/01 12:07:15;;;;;;;;;;;14.40;58.80;;;;;;5030362;28;87089;-55
2022/05/01 12:09:41;;;;;;;;;;;14.50;58.80;;;;;;5027175;28;88518;-57
2022/05/01 12:12:12;;;;;;;;;;;14.50;58.80;;;;;;5027749;28;87084;-57
2022/05/01 12:14:38;;;;;;;;;;;14.50;58.70;;;;;;5027336;28;87909;-56
2022/05/01 12:17:08;;;;;;;;;;;14.50;58.70;;;;;;5027011;28;87753;-54
2022/05/01 12:19:38;;;;;;;;;;;14.50;58.80;;;;;;5027750;28;86349;-57
2022/05/01 12:22:07;;;;;;;;;;;14.50;58.80;;;;;;5027345;28;86870;-58
2022/05/01 12:24:33;;;;;;;;;;;14.50;58.70;;;;;;5026864;28;88834;-56
2022/05/01 12:26:59;;;;;;;;;;;14.50;58.70;;;;;;5027070;28;88476;-54
2022/05/01 12:29:26;;;;;;;;;;;14.60;58.80;;;;;;5030116;28;88899;-56
2022/05/01 12:32:00;;;;;;;;;;;14.60;58.60;;;;;;5027528;28;86932;-55
2022/05/01 12:34:26;;;;;;;;;;;14.60;58.60;;;;;;5027470;28;87868;-54
2022/05/01 12:37:02;;;;;;;;;;;14.70;58.60;;;;;;5027175;28;88744;-54
2022/05/01 12:39:28;;;;;;;;;;;14.60;58.40;;;;;;5027491;28;86878;-54
2022/05/01 12:45:04;;;;;;;;;;;14.70;58.70;;;;;;5027832;28;86169;-54
2022/05/01 12:47:48;;;;;;;;;;;14.70;58.70;;;;;;5027393;28;86943;-53
2022/05/01 12:50:20;;;;;;;;;;;14.70;58.70;;;;;;5026708;28;86868;-54
2022/05/01 12:52:46;;;;;;;;;;;14.70;58.80;;;;;;5029439;28;87903;-57
2022/05/01 12:55:14;;;;;;;;;;;14.70;58.80;;;;;;5026508;28;88278;-56
2022/05/01 12:57:40;;;;;;;;;;;14.70;58.80;;;;;;5026267;28;87521;-54
2022/05/01 13:00:07;;;;;;;;;;;14.70;58.80;;;;;;5026770;28;88597;-60
2022/05/01 13:02:33;;;;;;;;;;;14.70;57.10;;;;;;5027254;28;87359;-61
2022/05/01 13:04:59;;;;;;;;;;;14.60;55.00;;;;;;5026725;28;88686;-61
2022/05/01 13:07:31;;;;;;;;;;;14.50;54.30;;;;;;5027017;28;86900;-61
2022/05/01 13:09:57;;;;;;;;;;;14.50;52.60;;;;;;5027610;28;87118;-64
2022/05/01 13:12:31;;;;;;;;;;;14.50;52.70;;;;;;5029837;28;87260;-58
2022/05/01 13:15:02;;;;;;;;;;;14.60;53.60;;;;;;5027061;28;86952;-52
2022/05/01 13:17:31;;;;;;;;;;;14.70;52.20;;;;;;5025883;28;89282;-57
2022/05/01 13:19:57;;;;;;;;;;;14.70;53.30;;;;;;5026832;28;86836;-55
2022/05/01 13:45:49;;;;;;;;;;;15.00;53.10;;;;;;5027107;27;1320509;-60
2022/05/01 13:48:16;;;;;;;;;;;15.10;52.70;;;;;;5086142;27;80137;-58
2022/05/01 13:50:41;;;;;;;;;;;15.00;53.90;;;;;;5088438;27;81084;-52
2022/05/01 13:53:12;;;;;;;;;;;15.00;53.90;;;;;;5088595;27;80631;-53
2022/05/01 13:55:38;;;;;;;;;;;15.00;54.00;;;;;;5088455;27;79932;-55
2022/05/01 13:58:04;;;;;;;;;;;15.00;54.00;;;;;;5088356;27;81625;-63
2022/05/01 14:00:30;;;;;;;;;;;15.10;54.10;;;;;;5088185;27;81237;-59
2022/05/01 14:02:55;;;;;;;;;;;15.10;52.10;;;;;;5088547;27;80244;-53
2022/05/01 14:05:21;;;;;;;;;;;15.20;53.10;;;;;;5090991;27;80076;-53
2022/05/01 14:07:46;;;;;;;;;;;15.20;51.30;;;;;;5088496;27;80340;-53
2022/05/01 14:10:12;;;;;;;;;;;15.20;51.00;;;;;;5088086;27;81339;-52
2022/05/01 14:12:38;;;;;;;;;;;15.30;50.60;;;;;;5088301;27;80774;-53
2022/05/01 14:15:03;;;;;;;;;;;15.20;50.80;;;;;;5087978;27;80383;-52
2022/05/01 14:17:29;;;;;;;;;;;15.20;50.70;;;;;;5088253;27;80740;-54
2022/05/01 14:19:56;;;;;;;;;;;15.30;51.30;;;;;;5088286;27;80611;-52
2022/05/01 14:22:22;;;;;;;;;;;15.20;51.40;;;;;;5087903;27;80095;-50
2022/05/01 14:24:50;;;;;;;;;;;15.20;50.80;;;;;;5088126;27;80086;-49
2022/05/01 14:27:16;;;;;;;;;;;15.30;51.20;;;;;;5090537;27;80870;-51
2022/05/01 14:29:41;;;;;;;;;;;15.20;51.90;;;;;;5087831;27;81135;-50
2022/05/01 14:32:07;;;;;;;;;;;15.20;50.00;;;;;;5082506;27;80882;-50
2022/05/01 14:34:38;;;;;;;;;;;15.20;50.60;;;;;;5067490;27;80172;-51
2022/05/01 14:37:04;;;;;;;;;;;15.30;49.60;;;;;;5067315;27;81320;-50
2022/05/01 14:39:30;;;;;;;;;;;15.30;50.30;;;;;;5067025;27;80960;-51
2022/05/01 14:41:57;;;;;;;;;;;15.30;49.00;;;;;;5067472;27;80164;-52
2022/05/01 14:44:25;;;;;;;;;;;15.30;48.50;;;;;;5066838;27;80408;-51
2022/05/01 14:46:56;;;;;;;;;;;15.40;48.50;;;;;;5066916;27;81876;-66
2022/05/01 14:49:29;;;;;;;;;;;15.30;50.80;;;;;;5069765;27;80271;-51
2022/05/01 14:51:59;;;;;;;;;;;15.40;51.70;;;;;;5066845;27;81444;-50
2022/05/01 14:54:35;;;;;;;;;;;15.40;49.50;;;;;;5067044;27;80181;-49
2022/05/01 14:57:02;;;;;;;;;;;15.40;50.40;;;;;;5054208;27;81392;-48
2022/05/01 15:07:52;;;;;;;;;;;15.50;51.50;;;;;;5053412;28;80459;-49
2022/05/01 15:10:19;;;;;;;;;;;15.60;51.30;;;;;;5053346;28;80036;-48
2022/05/01 15:12:44;;;;;;;;;;;15.60;50.50;;;;;;5055905;28;80186;-48
2022/05/01 15:15:11;;;;;;;;;;;15.50;50.70;;;;;;5053496;28;80324;-52
2022/05/01 15:17:39;;;;;;;;;;;15.60;50.40;;;;;;5053098;28;80357;-56
2022/05/01 15:20:20;;;;;;;;;;;15.70;50.40;;;;;;5052929;28;81706;-50
2022/05/01 15:23:05;;;;;;;;;;;15.80;50.20;;;;;;5053157;28;80087;-46
2022/05/01 15:25:38;;;;;;;;;;;15.80;50.20;;;;;;5053207;28;80226;-53